sensor_id;sensor_type;location;lat;lon;timestamp;temperature;humidity
12901;DHT22;6518;50.930;5.344;2024-01-15T00:01:00;1.70;99.90
12901;DHT22;6518;50.930;5.344;2024-01-15T00:03:27;1.70;99.90
12901;DHT22;6518;50.930;5.344;2024-01-15T00:05:55;1.70;99.90
12901;DHT22;6518;50.930;5.344;2024-01-15T00:08:22;1.70;99.90
12901;DHT22;6518;50.930;5.344;2024-01-15T00:10:49;1.70;99.90
12901;DHT22;6518;50.930;5.344;2024-01-15T00:13:16;1.70;99.90
12901;DHT22;6518;50.930;5.344;2024-01-15T00:15:42;1.70;99.90
12901;DHT22;6518;50.930;5.344;2024-01-15T00:18:09;1.60;99.90
12901;DHT22;6518;50.930;5.344;2024-01-15T00:20:36;1.60;99.90
12901;DHT22;6518;50.930;5.344;2024-01-15T00:23:05;1.70;99.90
12901;DHT22;6518;50.930;5.344;2024-01-15T00:25:32;1.70;99.90
12901;DHT22;6518;50.930;5.344;2024-01-15T00:27:58;1.70;99.90
12901;DHT22;6518;50.930;5.344;2024-01-15T00:30:25;1.70;99.90
12901;DHT22;6518;50.930;5.344;2024-01-15T00:32:52;1.70;99.90
12901;DHT22;6518;50.930;5.344;2024-01-15T00:35:19;1.70;99.90
12901;DHT22;6518;50.930;5.344;2024-01-15T00:37:46;1.70;99.90
12901;DHT22;6518;50.930;5.344;2024-01-15T00:40:14;1.70;99.90
12901;DHT22;6518;50.930;5.344;2024-01-15T00:42:41;1.70;99.90
12901;DHT22;6518;50.930;5.344;2024-01-15T00:45:09;1.60;99.90
12901;DHT22;6518;50.930;5.344;2024-01-15T00:47:36;1.60;99.90
12901;DHT22;6518;50.930;5.344;2024-01-15T00:50:03;1.60;99.90
12901;DHT22;6518;50.930;5.344;2024-01-15T00:52:30;1.60;99.90
12901;DHT22;6518;50.930;5.344;2024-01-15T00:54:57;1.60;99.90
12901;DHT22;6518;50.930;5.344;2024-01-15T00:57:25;1.60;99.90
12901;DHT22;6518;50.930;5.344;2024-01-15T00:59:52;1.60;99.90
12901;DHT22;6518;50.930;5.344;2024-01-15T01:02:19;1.50;99.90
12901;DHT22;6518;50.930;5.344;2024-01-15T01:04:46;1.50;99.90
12901;DHT22;6518;50.930;5.344;2024-01-15T01:07:13;1.50;99.90
12901;DHT22;6518;50.930;5.344;2024-01-15T01:09:40;1.50;99.90
12901;DHT22;6518;50.930;5.344;2024-01-15T01:12:07;1.60;99.90
12901;DHT22;6518;50.930;5.344;2024-01-15T01:14:35;1.60;99.90
12901;DHT22;6518;50.930;5.344;2024-01-15T01:17:02;1.60;99.90
12901;DHT22;6518;50.930;5.344;2024-01-15T01:19:29;1.60;99.90
12901;DHT22;6518;50.930;5.344;2024-01-15T01:21:57;1.60;99.90
12901;DHT22;6518;50.930;5.344;2024-01-15T01:24:24;1.60;99.90
12901;DHT22;6518;50.930;5.344;2024-01-15T01:26:51;1.70;99.90
12901;DHT22;6518;50.930;5.344;2024-01-15T01:29:17;1.70;99.90
12901;DHT22;6518;50.930;5.344;2024-01-15T01:31:46;1.70;99.90
12901;DHT22;6518;50.930;5.344;2024-01-15T01:34:14;1.70;99.90
12901;DHT22;6518;50.930;5.344;2024-01-15T01:36:42;1.70;99.90
12901;DHT22;6518;50.930;5.344;2024-01-15T01:39:09;1.70;99.90
12901;DHT22;6518;50.930;5.344;2024-01-15T01:41:38;1.70;99.90
12901;DHT22;6518;50.930;5.344;2024-01-15T01:44:05;1.70;99.90
12901;DHT22;6518;50.930;5.344;2024-01-15T01:46:32;1.70;99.90
12901;DHT22;6518;50.930;5.344;2024-01-15T01:49:01;1.80;99.90
12901;DHT22;6518;50.930;5.344;2024-01-15T01:51:31;1.80;99.90
12901;DHT22;6518;50.930;5.344;2024-01-15T01:53:58;1.80;99.90
12901;DHT22;6518;50.930;5.344;2024-01-15T01:56:25;1.80;99.90
12901;DHT22;6518;50.930;5.344;2024-01-15T01:58:53;1.80;99.90
12901;DHT22;6518;50.930;5.344;2024-01-15T02:01:20;1.80;99.90
12901;DHT22;6518;50.930;5.344;2024-01-15T02:03:47;1.80;99.90
12901;DHT22;6518;50.930;5.344;2024-01-15T02:06:15;1.80;99.90
12901;DHT22;6518;50.930;5.344;2024-01-15T02:08:43;1.80;99.90
12901;DHT22;6518;50.930;5.344;2024-01-15T02:11:10;1.80;99.90
12901;DHT22;6518;50.930;5.344;2024-01-15T02:13:38;1.80;99.90
12901;DHT22;6518;50.930;5.344;2024-01-15T02:16:06;1.80;99.90
12901;DHT22;6518;50.930;5.344;2024-01-15T02:18:40;1.80;99.90
12901;DHT22;6518;50.930;5.344;2024-01-15T02:21:07;1.80;99.90
12901;DHT22;6518;50.930;5.344;2024-01-15T02:23:35;1.70;99.90
12901;DHT22;6518;50.930;5.344;2024-01-15T02:26:02;1.80;99.90
12901;DHT22;6518;50.930;5.344;2024-01-15T02:28:29;1.80;99.90
12901;DHT22;6518;50.930;5.344;2024-01-15T02:30:56;1.80;99.90
12901;DHT22;6518;50.930;5.344;2024-01-15T02:33:23;1.80;99.90
12901;DHT22;6518;50.930;5.344;2024-01-15T02:35:50;1.80;99.90
12901;DHT22;6518;50.930;5.344;2024-01-15T02:38:17;1.80;99.90
12901;DHT22;6518;50.930;5.344;2024-01-15T02:40:46;1.80;99.90
12901;DHT22;6518;50.930;5.344;2024-01-15T02:43:13;1.80;99.90
12901;DHT22;6518;50.930;5.344;2024-01-15T02:45:40;1.80;99.90
12901;DHT22;6518;50.930;5.344;2024-01-15T02:48:07;1.80;99.90
12901;DHT22;6518;50.930;5.344;2024-01-15T02:50:34;1.90;99.90
12901;DHT22;6518;50.930;5.344;2024-01-15T02:53:01;1.90;99.90
12901;DHT22;6518;50.930;5.344;2024-01-15T02:55:28;1.80;99.90
12901;DHT22;6518;50.930;5.344;2024-01-15T02:57:57;1.80;99.90
12901;DHT22;6518;50.930;5.344;2024-01-15T03:00:24;1.80;99.90
12901;DHT22;6518;50.930;5.344;2024-01-15T03:02:51;1.90;99.90
12901;DHT22;6518;50.930;5.344;2024-01-15T03:05:18;1.80;99.90
12901;DHT22;6518;50.930;5.344;2024-01-15T03:07:45;1.80;99.90
12901;DHT22;6518;50.930;5.344;2024-01-15T03:10:13;1.90;99.90
12901;DHT22;6518;50.930;5.344;2024-01-15T03:12:40;1.90;99.90
12901;DHT22;6518;50.930;5.344;2024-01-15T03:15:08;1.90;99.90
12901;DHT22;6518;50.930;5.344;2024-01-15T03:17:35;1.90;99.90
12901;DHT22;6518;50.930;5.344;2024-01-15T03:20:02;1.90;99.90
12901;DHT22;6518;50.930;5.344;2024-01-15T03:22:29;1.90;99.90
12901;DHT22;6518;50.930;5.344;2024-01-15T03:24:56;1.90;99.90
12901;DHT22;6518;50.930;5.344;2024-01-15T03:27:23;2.00;99.90
12901;DHT22;6518;50.930;5.344;2024-01-15T03:29:51;2.00;99.90
12901;DHT22;6518;50.930;5.344;2024-01-15T03:32:19;2.60;99.90
12901;DHT22;6518;50.930;5.344;2024-01-15T03:34:46;2.00;99.90
12901;DHT22;6518;50.930;5.344;2024-01-15T03:37:13;2.00;99.90
12901;DHT22;6518;50.930;5.344;2024-01-15T03:39:40;2.00;99.90
12901;DHT22;6518;50.930;5.344;2024-01-15T03:42:07;2.00;99.90
12901;DHT22;6518;50.930;5.344;2024-01-15T03:44:34;1.90;99.90
12901;DHT22;6518;50.930;5.344;2024-01-15T03:47:01;2.00;99.90
12901;DHT22;6518;50.930;5.344;2024-01-15T03:49:29;2.00;99.90
12901;DHT22;6518;50.930;5.344;2024-01-15T03:51:56;2.00;99.90
12901;DHT22;6518;50.930;5.344;2024-01-15T03:54:23;2.00;99.90
12901;DHT22;6518;50.930;5.344;2024-01-15T03:56:50;2.00;99.90
12901;DHT22;6518;50.930;5.344;2024-01-15T03:59:17;2.00;99.90
12901;DHT22;6518;50.930;5.344;2024-01-15T04:01:48;2.00;99.90
12901;DHT22;6518;50.930;5.344;2024-01-15T04:04:16;2.00;99.90
12901;DHT22;6518;50.930;5.344;2024-01-15T04:06:44;2.00;99.90
12901;DHT22;6518;50.930;5.344;2024-01-15T04:09:12;2.00;99.90
12901;DHT22;6518;50.930;5.344;2024-01-15T04:11:39;2.00;99.90
12901;DHT22;6518;50.930;5.344;2024-01-15T04:14:06;2.00;99.90
12901;DHT22;6518;50.930;5.344;2024-01-15T04:16:33;1.90;99.90
12901;DHT22;6518;50.930;5.344;2024-01-15T04:19:01;1.90;99.90
12901;DHT22;6518;50.930;5.344;2024-01-15T04:21:28;1.90;99.90
12901;DHT22;6518;50.930;5.344;2024-01-15T04:23:56;2.00;99.90
12901;DHT22;6518;50.930;5.344;2024-01-15T04:26:23;2.00;99.90
12901;DHT22;6518;50.930;5.344;2024-01-15T04:28:50;2.00;99.90
12901;DHT22;6518;50.930;5.344;2024-01-15T04:31:23;2.00;99.90
12901;DHT22;6518;50.930;5.344;2024-01-15T04:33:50;2.00;99.90
12901;DHT22;6518;50.930;5.344;2024-01-15T04:36:17;2.00;99.90
12901;DHT22;6518;50.930;5.344;2024-01-15T04:38:44;2.00;99.90
12901;DHT22;6518;50.930;5.344;2024-01-15T04:41:13;2.00;99.90
12901;DHT22;6518;50.930;5.344;2024-01-15T04:43:41;2.00;99.90
12901;DHT22;6518;50.930;5.344;2024-01-15T04:46:08;2.00;99.90
12901;DHT22;6518;50.930;5.344;2024-01-15T04:48:35;2.00;99.90
12901;DHT22;6518;50.930;5.344;2024-01-15T04:51:04;2.00;99.90
12901;DHT22;6518;50.930;5.344;2024-01-15T04:53:31;2.00;99.90
12901;DHT22;6518;50.930;5.344;2024-01-15T04:55:58;2.10;99.90
12901;DHT22;6518;50.930;5.344;2024-01-15T04:58:26;2.10;99.90
12901;DHT22;6518;50.930;5.344;2024-01-15T05:00:53;2.00;99.90
12901;DHT22;6518;50.930;5.344;2024-01-15T05:03:20;2.10;99.90
12901;DHT22;6518;50.930;5.344;2024-01-15T05:05:47;2.00;99.90
12901;DHT22;6518;50.930;5.344;2024-01-15T05:08:14;2.00;99.90
12901;DHT22;6518;50.930;5.344;2024-01-15T05:10:41;2.00;99.90
12901;DHT22;6518;50.930;5.344;2024-01-15T05:13:08;2.00;99.90
12901;DHT22;6518;50.930;5.344;2024-01-15T05:15:36;2.00;99.90
12901;DHT22;6518;50.930;5.344;2024-01-15T05:18:03;2.00;99.90
12901;DHT22;6518;50.930;5.344;2024-01-15T05:20:30;2.00;99.90
12901;DHT22;6518;50.930;5.344;2024-01-15T05:22:58;2.00;99.90
12901;DHT22;6518;50.930;5.344;2024-01-15T05:25:26;2.00;99.90
12901;DHT22;6518;50.930;5.344;2024-01-15T05:27:53;1.90;99.90
12901;DHT22;6518;50.930;5.344;2024-01-15T05:30:21;1.90;99.90
12901;DHT22;6518;50.930;5.344;2024-01-15T05:32:50;1.90;99.90
12901;DHT22;6518;50.930;5.344;2024-01-15T05:35:17;1.90;99.90
12901;DHT22;6518;50.930;5.344;2024-01-15T05:37:44;1.90;99.90
12901;DHT22;6518;50.930;5.344;2024-01-15T05:40:13;1.90;99.90
12901;DHT22;6518;50.930;5.344;2024-01-15T05:42:41;1.90;99.90
12901;DHT22;6518;50.930;5.344;2024-01-15T05:45:08;1.90;99.90
12901;DHT22;6518;50.930;5.344;2024-01-15T05:47:35;1.90;99.90
12901;DHT22;6518;50.930;5.344;2024-01-15T05:50:04;1.90;99.90
12901;DHT22;6518;50.930;5.344;2024-01-15T05:52:32;1.90;99.90
12901;DHT22;6518;50.930;5.344;2024-01-15T05:54:59;1.90;99.90
12901;DHT22;6518;50.930;5.344;2024-01-15T05:57:26;1.90;99.90
12901;DHT22;6518;50.930;5.344;2024-01-15T05:59:53;1.90;99.90
12901;DHT22;6518;50.930;5.344;2024-01-15T06:02:21;1.80;99.90
12901;DHT22;6518;50.930;5.344;2024-01-15T06:04:48;1.80;99.90
12901;DHT22;6518;50.930;5.344;2024-01-15T06:07:16;1.80;99.90
12901;DHT22;6518;50.930;5.344;2024-01-15T06:09:43;1.80;99.90
12901;DHT22;6518;50.930;5.344;2024-01-15T06:12:10;1.70;99.90
12901;DHT22;6518;50.930;5.344;2024-01-15T06:14:38;1.90;99.90
12901;DHT22;6518;50.930;5.344;2024-01-15T06:17:04;1.70;99.90
12901;DHT22;6518;50.930;5.344;2024-01-15T06:19:31;1.70;99.90
12901;DHT22;6518;50.930;5.344;2024-01-15T06:21:58;1.70;99.90
12901;DHT22;6518;50.930;5.344;2024-01-15T06:24:27;1.70;99.90
12901;DHT22;6518;50.930;5.344;2024-01-15T06:26:54;1.70;99.90
12901;DHT22;6518;50.930;5.344;2024-01-15T06:29:21;1.70;99.90
12901;DHT22;6518;50.930;5.344;2024-01-15T06:31:49;1.70;99.90
12901;DHT22;6518;50.930;5.344;2024-01-15T06:34:16;1.60;99.90
12901;DHT22;6518;50.930;5.344;2024-01-15T06:36:43;1.60;99.90
12901;DHT22;6518;50.930;5.344;2024-01-15T06:39:10;1.60;99.90
12901;DHT22;6518;50.930;5.344;2024-01-15T06:41:38;1.60;99.90
12901;DHT22;6518;50.930;5.344;2024-01-15T06:44:09;1.60;99.90
12901;DHT22;6518;50.930;5.344;2024-01-15T06:46:36;1.60;99.90
12901;DHT22;6518;50.930;5.344;2024-01-15T06:49:04;1.60;99.90
12901;DHT22;6518;50.930;5.344;2024-01-15T06:51:31;1.60;99.90
12901;DHT22;6518;50.930;5.344;2024-01-15T06:53:58;1.60;99.90
12901;DHT22;6518;50.930;5.344;2024-01-15T06:56:25;1.60;99.90
12901;DHT22;6518;50.930;5.344;2024-01-15T06:58:54;1.60;99.90
12901;DHT22;6518;50.930;5.344;2024-01-15T07:01:20;1.80;99.90
12901;DHT22;6518;50.930;5.344;2024-01-15T07:03:47;1.60;99.90
12901;DHT22;6518;50.930;5.344;2024-01-15T07:06:14;1.70;99.90
12901;DHT22;6518;50.930;5.344;2024-01-15T07:08:42;1.70;99.90
12901;DHT22;6518;50.930;5.344;2024-01-15T07:11:09;1.70;99.90
12901;DHT22;6518;50.930;5.344;2024-01-15T07:13:36;1.80;99.90
12901;DHT22;6518;50.930;5.344;2024-01-15T07:16:05;1.80;99.90
12901;DHT22;6518;50.930;5.344;2024-01-15T07:18:33;1.80;99.90
12901;DHT22;6518;50.930;5.344;2024-01-15T07:20:59;1.80;99.90
12901;DHT22;6518;50.930;5.344;2024-01-15T07:23:28;1.80;99.90
12901;DHT22;6518;50.930;5.344;2024-01-15T07:25:55;1.80;99.90
12901;DHT22;6518;50.930;5.344;2024-01-15T07:28:22;1.80;99.90
12901;DHT22;6518;50.930;5.344;2024-01-15T07:30:49;1.80;99.90
12901;DHT22;6518;50.930;5.344;2024-01-15T07:33:17;1.80;99.90
12901;DHT22;6518;50.930;5.344;2024-01-15T07:35:44;1.80;99.90
12901;DHT22;6518;50.930;5.344;2024-01-15T07:38:12;1.80;99.90
12901;DHT22;6518;50.930;5.344;2024-01-15T07:40:39;1.80;99.90
12901;DHT22;6518;50.930;5.344;2024-01-15T07:43:06;1.80;99.90
12901;DHT22;6518;50.930;5.344;2024-01-15T07:45:33;1.80;99.90
12901;DHT22;6518;50.930;5.344;2024-01-15T07:48:00;1.80;99.90
12901;DHT22;6518;50.930;5.344;2024-01-15T07:50:28;1.80;99.90
12901;DHT22;6518;50.930;5.344;2024-01-15T07:52:55;1.80;99.90
12901;DHT22;6518;50.930;5.344;2024-01-15T07:55:22;1.80;99.90
12901;DHT22;6518;50.930;5.344;2024-01-15T07:57:49;1.80;99.90
12901;DHT22;6518;50.930;5.344;2024-01-15T08:00:17;1.80;99.90
12901;DHT22;6518;50.930;5.344;2024-01-15T08:02:44;1.80;99.90
12901;DHT22;6518;50.930;5.344;2024-01-15T08:05:11;1.80;99.90
12901;DHT22;6518;50.930;5.344;2024-01-15T08:07:39;1.80;99.90
12901;DHT22;6518;50.930;5.344;2024-01-15T08:10:07;1.80;99.90
12901;DHT22;6518;50.930;5.344;2024-01-15T08:12:34;1.80;99.90
12901;DHT22;6518;50.930;5.344;2024-01-15T08:15:00;1.80;99.90
12901;DHT22;6518;50.930;5.344;2024-01-15T08:17:27;1.70;99.90
12901;DHT22;6518;50.930;5.344;2024-01-15T08:19:55;1.80;99.90
12901;DHT22;6518;50.930;5.344;2024-01-15T08:22:22;1.80;99.90
12901;DHT22;6518;50.930;5.344;2024-01-15T08:24:51;1.80;99.90
12901;DHT22;6518;50.930;5.344;2024-01-15T08:27:19;1.80;99.90
12901;DHT22;6518;50.930;5.344;2024-01-15T08:29:46;1.80;99.90
12901;DHT22;6518;50.930;5.344;2024-01-15T08:32:13;1.80;99.90
12901;DHT22;6518;50.930;5.344;2024-01-15T08:34:41;1.90;99.90
12901;DHT22;6518;50.930;5.344;2024-01-15T08:37:08;1.90;99.90
12901;DHT22;6518;50.930;5.344;2024-01-15T08:39:35;1.90;99.90
12901;DHT22;6518;50.930;5.344;2024-01-15T08:42:05;1.90;99.90
12901;DHT22;6518;50.930;5.344;2024-01-15T08:44:32;1.90;99.90
12901;DHT22;6518;50.930;5.344;2024-01-15T08:46:59;1.90;99.90
12901;DHT22;6518;50.930;5.344;2024-01-15T08:49:26;1.90;99.90
12901;DHT22;6518;50.930;5.344;2024-01-15T08:51:53;1.90;99.90
12901;DHT22;6518;50.930;5.344;2024-01-15T08:54:20;1.90;99.90
12901;DHT22;6518;50.930;5.344;2024-01-15T08:56:47;1.90;99.90
12901;DHT22;6518;50.930;5.344;2024-01-15T08:59:15;2.00;99.90
12901;DHT22;6518;50.930;5.344;2024-01-15T09:01:42;2.00;99.90
12901;DHT22;6518;50.930;5.344;2024-01-15T09:04:09;2.00;99.90
12901;DHT22;6518;50.930;5.344;2024-01-15T09:06:35;2.10;99.90
12901;DHT22;6518;50.930;5.344;2024-01-15T09:09:02;2.10;99.90
12901;DHT22;6518;50.930;5.344;2024-01-15T09:11:30;2.20;99.90
12901;DHT22;6518;50.930;5.344;2024-01-15T09:13:57;2.20;99.90
12901;DHT22;6518;50.930;5.344;2024-01-15T09:16:25;2.20;99.90
12901;DHT22;6518;50.930;5.344;2024-01-15T09:18:52;2.20;99.90
12901;DHT22;6518;50.930;5.344;2024-01-15T09:21:22;2.20;99.90
12901;DHT22;6518;50.930;5.344;2024-01-15T09:23:49;2.20;99.90
12901;DHT22;6518;50.930;5.344;2024-01-15T09:26:16;2.30;99.90
12901;DHT22;6518;50.930;5.344;2024-01-15T09:28:43;2.30;99.90
12901;DHT22;6518;50.930;5.344;2024-01-15T09:31:10;2.30;99.90
12901;DHT22;6518;50.930;5.344;2024-01-15T09:33:39;2.40;99.90
12901;DHT22;6518;50.930;5.344;2024-01-15T09:36:06;2.40;99.90
12901;DHT22;6518;50.930;5.344;2024-01-15T09:38:33;2.40;99.90
12901;DHT22;6518;50.930;5.344;2024-01-15T09:41:00;2.50;99.90
12901;DHT22;6518;50.930;5.344;2024-01-15T09:43:27;2.50;99.90
12901;DHT22;6518;50.930;5.344;2024-01-15T09:45:54;2.50;99.90
12901;DHT22;6518;50.930;5.344;2024-01-15T09:48:21;2.60;99.90
12901;DHT22;6518;50.930;5.344;2024-01-15T09:50:50;2.60;99.90
12901;DHT22;6518;50.930;5.344;2024-01-15T09:53:18;2.60;99.90
12901;DHT22;6518;50.930;5.344;2024-01-15T09:55:47;2.60;99.90
12901;DHT22;6518;50.930;5.344;2024-01-15T09:58:16;2.70;99.90
12901;DHT22;6518;50.930;5.344;2024-01-15T10:00:44;2.70;99.90
12901;DHT22;6518;50.930;5.344;2024-01-15T10:03:11;2.70;99.90
12901;DHT22;6518;50.930;5.344;2024-01-15T10:05:39;2.70;99.90
12901;DHT22;6518;50.930;5.344;2024-01-15T10:08:07;3.20;99.90
12901;DHT22;6518;50.930;5.344;2024-01-15T10:10:36;2.80;99.90
12901;DHT22;6518;50.930;5.344;2024-01-15T10:13:04;2.90;99.90
12901;DHT22;6518;50.930;5.344;2024-01-15T10:15:34;2.90;99.90
12901;DHT22;6518;50.930;5.344;2024-01-15T10:18:02;2.90;99.90
12901;DHT22;6518;50.930;5.344;2024-01-15T10:20:32;2.90;99.90
12901;DHT22;6518;50.930;5.344;2024-01-15T10:22:59;2.90;99.90
12901;DHT22;6518;50.930;5.344;2024-01-15T10:25:27;2.90;99.90
12901;DHT22;6518;50.930;5.344;2024-01-15T10:28:01;2.90;99.90
12901;DHT22;6518;50.930;5.344;2024-01-15T10:30:28;2.90;99.90
12901;DHT22;6518;50.930;5.344;2024-01-15T10:32:59;2.90;99.90
12901;DHT22;6518;50.930;5.344;2024-01-15T10:35:28;2.90;99.90
12901;DHT22;6518;50.930;5.344;2024-01-15T10:37:55;2.90;99.90
12901;DHT22;6518;50.930;5.344;2024-01-15T10:40:23;2.90;99.90
12901;DHT22;6518;50.930;5.344;2024-01-15T10:42:51;3.00;99.90
12901;DHT22;6518;50.930;5.344;2024-01-15T10:45:19;3.00;99.90
12901;DHT22;6518;50.930;5.344;2024-01-15T10:47:46;3.00;99.90
12901;DHT22;6518;50.930;5.344;2024-01-15T10:50:14;3.00;99.90
12901;DHT22;6518;50.930;5.344;2024-01-15T10:52:42;3.00;99.90
12901;DHT22;6518;50.930;5.344;2024-01-15T10:55:11;3.10;99.90
12901;DHT22;6518;50.930;5.344;2024-01-15T10:57:38;3.20;99.90
12901;DHT22;6518;50.930;5.344;2024-01-15T11:00:08;3.30;99.90
12901;DHT22;6518;50.930;5.344;2024-01-15T11:02:40;3.40;99.90
12901;DHT22;6518;50.930;5.344;2024-01-15T11:05:08;3.60;99.90
12901;DHT22;6518;50.930;5.344;2024-01-15T11:07:35;3.80;99.90
12901;DHT22;6518;50.930;5.344;2024-01-15T11:10:04;3.80;99.90
12901;DHT22;6518;50.930;5.344;2024-01-15T11:12:31;3.80;99.90
12901;DHT22;6518;50.930;5.344;2024-01-15T11:15:02;3.90;99.90
12901;DHT22;6518;50.930;5.344;2024-01-15T11:17:58;3.90;99.90
12901;DHT22;6518;50.930;5.344;2024-01-15T11:20:26;4.00;99.90
12901;DHT22;6518;50.930;5.344;2024-01-15T11:22:53;3.90;99.90
12901;DHT22;6518;50.930;5.344;2024-01-15T11:25:24;3.90;99.90
12901;DHT22;6518;50.930;5.344;2024-01-15T11:27:52;3.80;99.90
12901;DHT22;6518;50.930;5.344;2024-01-15T11:30:25;3.80;99.90
12901;DHT22;6518;50.930;5.344;2024-01-15T11:32:53;3.80;99.90
12901;DHT22;6518;50.930;5.344;2024-01-15T11:35:20;3.70;99.90
12901;DHT22;6518;50.930;5.344;2024-01-15T11:37:57;3.60;99.90
12901;DHT22;6518;50.930;5.344;2024-01-15T11:40:37;3.50;99.90
12901;DHT22;6518;50.930;5.344;2024-01-15T11:43:04;3.30;99.90
12901;DHT22;6518;50.930;5.344;2024-01-15T11:45:32;3.20;99.90
12901;DHT22;6518;50.930;5.344;2024-01-15T11:48:10;2.90;99.90
12901;DHT22;6518;50.930;5.344;2024-01-15T11:50:40;2.70;99.90
12901;DHT22;6518;50.930;5.344;2024-01-15T11:53:16;2.60;99.90
12901;DHT22;6518;50.930;5.344;2024-01-15T11:55:44;2.50;99.90
12901;DHT22;6518;50.930;5.344;2024-01-15T11:58:12;2.50;99.90
12901;DHT22;6518;50.930;5.344;2024-01-15T12:00:44;2.30;99.90
12901;DHT22;6518;50.930;5.344;2024-01-15T12:03:12;2.30;99.90
12901;DHT22;6518;50.930;5.344;2024-01-15T12:05:40;2.30;99.90
12901;DHT22;6518;50.930;5.344;2024-01-15T12:08:08;2.30;99.90
12901;DHT22;6518;50.930;5.344;2024-01-15T12:10:37;2.20;99.90
12901;DHT22;6518;50.930;5.344;2024-01-15T12:13:10;2.10;99.90
12901;DHT22;6518;50.930;5.344;2024-01-15T12:15:37;2.10;99.90
12901;DHT22;6518;50.930;5.344;2024-01-15T12:18:08;2.00;99.90
12901;DHT22;6518;50.930;5.344;2024-01-15T12:20:36;2.00;99.90
12901;DHT22;6518;50.930;5.344;2024-01-15T12:23:03;2.10;99.90
12901;DHT22;6518;50.930;5.344;2024-01-15T12:25:32;2.10;99.90
12901;DHT22;6518;50.930;5.344;2024-01-15T12:28:00;2.00;99.90
12901;DHT22;6518;50.930;5.344;2024-01-15T12:30:28;2.00;99.90
12901;DHT22;6518;50.930;5.344;2024-01-15T12:32:57;1.90;99.90
12901;DHT22;6518;50.930;5.344;2024-01-15T12:35:24;1.90;99.90
12901;DHT22;6518;50.930;5.344;2024-01-15T12:37:54;1.90;99.90
12901;DHT22;6518;50.930;5.344;2024-01-15T12:40:22;1.90;99.90
12901;DHT22;6518;50.930;5.344;2024-01-15T12:42:49;2.00;99.90
12901;DHT22;6518;50.930;5.344;2024-01-15T12:45:17;2.00;99.90
12901;DHT22;6518;50.930;5.344;2024-01-15T12:47:45;2.20;99.90
12901;DHT22;6518;50.930;5.344;2024-01-15T12:50:12;2.30;99.90
12901;DHT22;6518;50.930;5.344;2024-01-15T12:52:40;2.30;99.90
12901;DHT22;6518;50.930;5.344;2024-01-15T12:55:09;2.40;99.90
12901;DHT22;6518;50.930;5.344;2024-01-15T12:57:37;2.40;99.90
12901;DHT22;6518;50.930;5.344;2024-01-15T13:00:05;2.40;99.90
12901;DHT22;6518;50.930;5.344;2024-01-15T13:02:34;2.40;99.90
12901;DHT22;6518;50.930;5.344;2024-01-15T13:05:02;2.40;99.90
12901;DHT22;6518;50.930;5.344;2024-01-15T13:07:30;2.40;99.90
12901;DHT22;6518;50.930;5.344;2024-01-15T13:09:57;2.40;99.90
12901;DHT22;6518;50.930;5.344;2024-01-15T13:12:25;2.40;99.90
12901;DHT22;6518;50.930;5.344;2024-01-15T13:14:52;2.30;99.90
12901;DHT22;6518;50.930;5.344;2024-01-15T13:17:19;2.20;99.90
12901;DHT22;6518;50.930;5.344;2024-01-15T13:19:47;2.20;99.90
12901;DHT22;6518;50.930;5.344;2024-01-15T13:22:14;2.20;99.90
12901;DHT22;6518;50.930;5.344;2024-01-15T13:24:41;2.20;99.90
12901;DHT22;6518;50.930;5.344;2024-01-15T13:27:09;2.30;99.90
12901;DHT22;6518;50.930;5.344;2024-01-15T13:29:37;2.20;99.90
12901;DHT22;6518;50.930;5.344;2024-01-15T13:32:04;2.30;99.90
12901;DHT22;6518;50.930;5.344;2024-01-15T13:34:31;2.20;99.90
12901;DHT22;6518;50.930;5.344;2024-01-15T13:36:58;2.20;99.90
12901;DHT22;6518;50.930;5.344;2024-01-15T13:39:25;2.20;99.90
12901;DHT22;6518;50.930;5.344;2024-01-15T13:41:52;2.20;99.90
12901;DHT22;6518;50.930;5.344;2024-01-15T13:44:19;2.20;99.90
12901;DHT22;6518;50.930;5.344;2024-01-15T13:46:47;2.20;99.90
12901;DHT22;6518;50.930;5.344;2024-01-15T13:49:14;2.10;99.90
12901;DHT22;6518;50.930;5.344;2024-01-15T13:51:41;2.20;99.90
12901;DHT22;6518;50.930;5.344;2024-01-15T13:54:08;2.20;99.90
12901;DHT22;6518;50.930;5.344;2024-01-15T13:56:35;2.20;99.90
12901;DHT22;6518;50.930;5.344;2024-01-15T13:59:02;2.20;99.90
12901;DHT22;6518;50.930;5.344;2024-01-15T14:01:31;2.10;99.90
12901;DHT22;6518;50.930;5.344;2024-01-15T14:04:00;2.20;99.90
12901;DHT22;6518;50.930;5.344;2024-01-15T14:06:27;2.10;99.90
12901;DHT22;6518;50.930;5.344;2024-01-15T14:08:54;2.10;99.90
12901;DHT22;6518;50.930;5.344;2024-01-15T14:11:23;2.10;99.90
12901;DHT22;6518;50.930;5.344;2024-01-15T14:13:53;2.00;99.90
12901;DHT22;6518;50.930;5.344;2024-01-15T14:16:20;2.00;99.90
12901;DHT22;6518;50.930;5.344;2024-01-15T14:18:48;2.10;99.90
12901;DHT22;6518;50.930;5.344;2024-01-15T14:21:16;2.10;99.90
12901;DHT22;6518;50.930;5.344;2024-01-15T14:23:44;2.10;99.90
12901;DHT22;6518;50.930;5.344;2024-01-15T14:26:10;2.00;99.90
12901;DHT22;6518;50.930;5.344;2024-01-15T14:28:38;2.10;99.90
12901;DHT22;6518;50.930;5.344;2024-01-15T14:31:05;2.00;99.90
12901;DHT22;6518;50.930;5.344;2024-01-15T14:33:32;2.00;99.90
12901;DHT22;6518;50.930;5.344;2024-01-15T14:35:59;2.00;99.90
12901;DHT22;6518;50.930;5.344;2024-01-15T14:38:27;2.00;99.90
12901;DHT22;6518;50.930;5.344;2024-01-15T14:40:54;2.00;99.90
12901;DHT22;6518;50.930;5.344;2024-01-15T14:43:21;2.00;99.90
12901;DHT22;6518;50.930;5.344;2024-01-15T14:45:48;2.10;99.90
12901;DHT22;6518;50.930;5.344;2024-01-15T14:48:15;2.10;99.90
12901;DHT22;6518;50.930;5.344;2024-01-15T14:50:42;2.10;99.90
12901;DHT22;6518;50.930;5.344;2024-01-15T14:53:08;2.10;99.90
12901;DHT22;6518;50.930;5.344;2024-01-15T14:55:37;2.10;99.90
12901;DHT22;6518;50.930;5.344;2024-01-15T14:58:05;2.10;99.90
12901;DHT22;6518;50.930;5.344;2024-01-15T15:00:32;2.10;99.90
12901;DHT22;6518;50.930;5.344;2024-01-15T15:02:59;2.00;99.90
12901;DHT22;6518;50.930;5.344;2024-01-15T15:05:25;1.90;99.90
12901;DHT22;6518;50.930;5.344;2024-01-15T15:07:52;1.80;99.90
12901;DHT22;6518;50.930;5.344;2024-01-15T15:10:19;1.80;99.90
12901;DHT22;6518;50.930;5.344;2024-01-15T15:12:47;1.60;99.90
12901;DHT22;6518;50.930;5.344;2024-01-15T15:15:14;1.60;99.90
12901;DHT22;6518;50.930;5.344;2024-01-15T15:17:42;1.60;99.90
12901;DHT22;6518;50.930;5.344;2024-01-15T15:20:10;1.60;99.90
12901;DHT22;6518;50.930;5.344;2024-01-15T15:22:37;1.60;99.90
12901;DHT22;6518;50.930;5.344;2024-01-15T15:25:05;1.60;99.90
12901;DHT22;6518;50.930;5.344;2024-01-15T15:27:34;1.60;99.90
12901;DHT22;6518;50.930;5.344;2024-01-15T15:30:03;1.50;99.90
12901;DHT22;6518;50.930;5.344;2024-01-15T15:32:30;1.50;99.90
12901;DHT22;6518;50.930;5.344;2024-01-15T15:34:57;1.60;99.90
12901;DHT22;6518;50.930;5.344;2024-01-15T15:37:23;1.50;99.90
12901;DHT22;6518;50.930;5.344;2024-01-15T15:39:50;1.50;99.90
12901;DHT22;6518;50.930;5.344;2024-01-15T15:42:17;1.50;99.90
12901;DHT22;6518;50.930;5.344;2024-01-15T15:44:44;1.40;99.90
12901;DHT22;6518;50.930;5.344;2024-01-15T15:47:14;1.40;99.90
12901;DHT22;6518;50.930;5.344;2024-01-15T15:49:41;1.30;99.90
12901;DHT22;6518;50.930;5.344;2024-01-15T15:52:08;1.40;99.90
12901;DHT22;6518;50.930;5.344;2024-01-15T15:54:35;1.40;99.90
12901;DHT22;6518;50.930;5.344;2024-01-15T15:57:03;1.30;99.90
12901;DHT22;6518;50.930;5.344;2024-01-15T15:59:30;1.30;99.90
12901;DHT22;6518;50.930;5.344;2024-01-15T16:01:57;1.20;99.90
12901;DHT22;6518;50.930;5.344;2024-01-15T16:04:25;1.20;99.90